Time;durP1;ratioP1;P1;durP2;ratioP2;P2;SDS_P1;SDS_P2;PMS_P1;PMS_P2;Temp;Humidity;BMP_temperature;BMP_pressure;BME280_temperature;BME280_humidity;BME280_pressure;Samples;Min_cycle;Max_cycle;Signal;HPM_P1;HPM_P2
2023/09/05 00:01:51;;;;;;;0.55;0.50;;;;;;;13.34;100.00;98592.06;1225909;75;2912186;-65
2023/09/05 00:04:24;;;;;;;1.30;0.70;;;;;;;13.28;100.00;98601.47;1225877;75;2910936;-66
2023/09/05 00:06:59;;;;;;;1.20;1.00;;;;;;;13.17;100.00;98597.22;1226455;75;2913624;-63
2023/09/05 00:09:32;;;;;;;1.75;1.20;;;;;;;12.97;100.00;98602.56;1225383;75;2915490;-65
2023/09/05 00:12:04;;;;;;;0.70;0.70;;;;;;;13.10;100.00;98602.31;1225782;75;2913308;-64
2023/09/05 00:14:38;;;;;;;1.10;0.90;;;;;;;13.17;100.00;98599.97;1226307;75;2919483;-64
2023/09/05 00:17:11;;;;;;;0.85;0.80;;;;;;;13.13;100.00;98593.13;1226247;75;2910537;-64
2023/09/05 00:19:43;;;;;;;0.85;0.80;;;;;;;13.19;100.00;98591.25;1225538;75;2917137;-66
2023/09/05 00:22:18;;;;;;;1.10;1.00;;;;;;;13.05;100.00;98592.72;1225757;75;2911229;-69
2023/09/05 00:24:51;;;;;;;2.65;1.40;;;;;;;12.64;100.00;98594.38;1226615;75;2920489;-65
2023/09/05 00:27:24;;;;;;;1.40;1.20;;;;;;;12.85;100.00;98585.09;1225511;75;2915002;-67
2023/09/05 00:29:57;;;;;;;1.20;1.00;;;;;;;12.95;100.00;98577.53;1225726;75;2915141;-65
2023/09/05 00:32:32;;;;;;;1.80;1.25;;;;;;;12.84;100.00;98582.81;1225502;75;2913757;-63
2023/09/05 00:35:05;;;;;;;1.90;1.60;;;;;;;12.57;100.00;98585.25;1225519;75;2922147;-68
2023/09/05 00:37:40;;;;;;;1.45;1.30;;;;;;;12.66;100.00;98578.94;1225955;75;2921167;-64
2023/09/05 00:40:15;;;;;;;1.30;1.20;;;;;;;12.79;100.00;98567.72;1225116;75;2917420;-63
2023/09/05 00:42:47;;;;;;;1.40;1.20;;;;;;;12.85;100.00;98565.84;1225106;75;2921893;-65
2023/09/05 00:45:20;;;;;;;1.30;1.10;;;;;;;12.85;100.00;98559.59;1225728;75;2912400;-68
2023/09/05 00:47:53;;;;;;;0.85;0.85;;;;;;;12.85;100.00;98565.84;1226503;75;2910130;-66
2023/09/05 00:50:26;;;;;;;1.05;0.95;;;;;;;12.88;100.00;98555.91;1225895;75;2916602;-67
2023/09/05 00:53:02;;;;;;;0.70;0.70;;;;;;;12.71;100.00;98558.31;1225580;75;2925132;-67
2023/09/05 00:55:34;;;;;;;0.60;0.60;;;;;;;12.81;100.00;98559.00;1226404;75;2913292;-64
2023/09/05 00:58:07;;;;;;;1.10;1.00;;;;;;;12.85;100.00;98562.34;1226185;75;2915110;-63
2023/09/05 01:00:40;;;;;;;0.70;0.60;;;;;;;12.75;100.00;98556.16;1225586;75;2910295;-64
2023/09/05 01:03:12;;;;;;;0.60;0.60;;;;;;;12.75;100.00;98556.16;1226186;75;2910189;-65
2023/09/05 01:05:53;;;;;;;1.20;0.90;;;;;;;12.62;100.00;98552.88;1226585;75;2918737;-67
2023/09/05 01:08:35;;;;;;;0.70;0.70;;;;;;;12.70;100.00;98551.28;1225977;75;2914057;-64
2023/09/05 01:11:08;;;;;;;0.70;0.70;;;;;;;12.71;100.00;98550.81;1226780;75;2907860;-66
2023/09/05 01:13:41;;;;;;;0.70;0.70;;;;;;;12.76;100.00;98547.44;1226489;75;2911464;-68
2023/09/05 01:16:14;;;;;;;1.40;1.00;;;;;;;12.70;100.00;98552.06;1226152;75;2913929;-65
2023/09/05 01:18:46;;;;;;;0.85;0.75;;;;;;;12.62;100.00;98542.63;1224559;75;2916038;-65
2023/09/05 01:21:35;;;;;;;0.60;0.60;;;;;;;12.64;100.00;98547.69;1226188;75;2919504;-67
2023/09/05 01:24:19;;;;;;;0.80;0.80;;;;;;;12.67;100.00;98544.00;1226536;75;2917176;-68
2023/09/05 01:26:53;;;;;;;0.50;0.50;;;;;;;12.66;100.00;98545.97;1226295;75;2923267;-66
2023/09/05 01:29:30;;;;;;;0.90;0.60;;;;;;;12.62;100.00;98542.63;1225833;75;2912951;-65
2023/09/05 01:32:04;;;;;;;0.60;0.60;;;;;;;12.52;100.00;98543.94;1226531;75;2913346;-66
2023/09/05 01:34:37;;;;;;;1.60;0.80;;;;;;;12.43;100.00;98543.97;1226185;75;2927384;-64
2023/09/05 01:37:14;;;;;;;0.80;0.70;;;;;;;12.48;100.00;98544.13;1226321;75;2918211;-64
2023/09/05 01:39:49;;;;;;;0.60;0.60;;;;;;;12.45;100.00;98539.53;1225600;75;2907855;-68
2023/09/05 01:42:22;;;;;;;1.15;0.95;;;;;;;12.43;100.00;98535.75;1225671;75;2916008;-66
2023/09/05 01:44:54;;;;;;;0.70;0.70;;;;;;;12.36;100.00;98536.84;1225984;75;2917411;-67
2023/09/05 01:47:27;;;;;;;2.75;1.00;;;;;;;12.43;100.00;98535.75;1225750;75;2914561;-64
2023/09/05 01:49:59;;;;;;;0.60;0.60;;;;;;;12.40;100.00;98533.94;1226391;75;2910221;-65
2023/09/05 01:52:32;;;;;;;1.00;0.90;;;;;;;12.35;100.00;98535.34;1225843;75;2922700;-65
2023/09/05 01:55:08;;;;;;;0.80;0.80;;;;;;;12.28;100.00;98536.44;1224540;75;2957150;-65
2023/09/05 01:57:41;;;;;;;0.95;0.90;;;;;;;12.18;100.00;98529.47;1226059;75;2917911;-64
2023/09/05 02:00:17;;;;;;;1.00;0.85;;;;;;;12.11;100.00;98527.81;1225863;75;2930996;-65
2023/09/05 02:02:50;;;;;;;1.20;1.10;;;;;;;12.09;100.00;98529.50;1224626;75;2914391;-64
2023/09/05 02:05:23;;;;;;;1.10;0.95;;;;;;;12.00;100.00;98524.84;1225895;75;2925225;-67
2023/09/05 02:07:56;;;;;;;0.80;0.65;;;;;;;12.10;100.00;98522.81;1225582;75;2910797;-65
2023/09/05 02:10:32;;;;;;;1.05;0.95;;;;;;;12.01;100.00;98509.88;1225342;75;2914747;-65
2023/09/05 02:13:04;;;;;;;0.80;0.80;;;;;;;12.01;100.00;98512.63;1225093;75;2912749;-66
2023/09/05 02:15:39;;;;;;;1.20;1.10;;;;;;;11.98;100.00;98510.03;1226125;75;2922739;-64
2023/09/05 02:18:11;;;;;;;1.05;0.90;;;;;;;12.00;100.00;98516.59;1214071;75;3771793;-65
2023/09/05 02:20:44;;;;;;;1.40;0.95;;;;;;;11.91;100.00;98511.91;1225618;75;2915550;-68
2023/09/05 02:23:17;;;;;;;1.30;0.95;;;;;;;12.05;100.00;98520.69;1225287;75;2915321;-62
2023/09/05 02:26:00;;;;;;;0.70;0.70;;;;;;;11.98;100.00;98512.78;1226156;75;2911938;-66
2023/09/05 02:28:33;;;;;;;1.05;0.90;;;;;;;11.90;100.00;98517.84;1225731;75;2912645;-66
2023/09/05 02:31:09;;;;;;;0.95;0.90;;;;;;;11.64;100.00;98522.94;1225383;75;2915920;-64
2023/09/05 02:33:41;;;;;;;0.90;0.90;;;;;;;11.82;100.00;98520.13;1224930;75;2914491;-67
2023/09/05 02:36:18;;;;;;;1.00;0.85;;;;;;;11.86;100.00;98515.25;1225689;75;2914900;-64
2023/09/05 02:38:50;;;;;;;0.80;0.80;;;;;;;11.84;100.00;98503.22;1225763;75;2923094;-65
2023/09/05 02:41:26;;;;;;;1.60;0.80;;;;;;;11.87;100.00;98516.78;1226082;75;2914901;-63
2023/09/05 02:43:58;;;;;;;1.20;1.10;;;;;;;11.79;100.00;98520.31;1225978;75;2913301;-65
2023/09/05 02:46:31;;;;;;;0.70;0.70;;;;;;;11.77;100.00;98518.03;1225020;75;2911468;-64
2023/09/05 02:49:03;;;;;;;1.20;1.00;;;;;;;11.80;100.00;98517.09;1225676;75;2913788;-66
2023/09/05 02:51:36;;;;;;;1.15;0.90;;;;;;;11.62;100.00;98506.19;1225240;75;2939209;-65
2023/09/05 02:54:09;;;;;;;0.80;0.80;;;;;;;11.59;100.00;98515.34;1226282;75;2916555;-66
2023/09/05 02:56:44;;;;;;;1.20;0.85;;;;;;;11.59;100.00;98509.84;1225736;75;2916099;-65
2023/09/05 02:59:17;;;;;;;1.00;0.90;;;;;;;11.41;100.00;98513.41;1225158;75;2917740;-66
2023/09/05 03:01:49;;;;;;;0.90;0.80;;;;;;;11.62;100.00;98519.91;1226024;75;2920737;-64
2023/09/05 03:04:22;;;;;;;1.00;0.90;;;;;;;11.51;100.00;98521.13;1225097;75;2921289;-64
2023/09/05 03:06:55;;;;;;;1.55;1.00;;;;;;;11.53;100.00;98520.69;1225420;75;2922511;-64
2023/09/05 03:09:27;;;;;;;1.05;0.95;;;;;;;11.54;100.00;98532.41;1224913;75;2920613;-65
2023/09/05 03:12:02;;;;;;;0.90;0.90;;;;;;;11.52;100.00;98522.69;1224841;75;2928089;-63
2023/09/05 03:14:35;;;;;;;1.40;1.20;;;;;;;11.43;100.00;98521.94;1225285;75;2920018;-64
2023/09/05 03:17:09;;;;;;;1.40;1.00;;;;;;;11.39;100.00;98529.56;1224384;75;2923820;-63
2023/09/05 03:19:43;;;;;;;3.25;1.20;;;;;;;11.42;100.00;98523.91;1224529;75;2916398;-63
2023/09/05 03:22:15;;;;;;;1.45;1.15;;;;;;;11.44;100.00;98521.47;1225054;75;2921270;-64
2023/09/05 03:24:48;;;;;;;1.10;1.00;;;;;;;11.51;100.00;98521.13;1224319;75;2922081;-64
2023/09/05 03:27:23;;;;;;;1.10;1.00;;;;;;;11.36;100.00;98531.22;1225053;75;2914040;-65
2023/09/05 03:29:56;;;;;;;1.15;0.80;;;;;;;11.35;100.00;98528.94;1224384;75;2919155;-64
2023/09/05 03:32:28;;;;;;;1.20;1.10;;;;;;;11.36;100.00;98527.72;1225044;75;2914664;-63
2023/09/05 03:35:01;;;;;;;0.95;0.85;;;;;;;11.38;100.00;98530.78;1225226;75;2926114;-64
2023/09/05 03:37:33;;;;;;;1.25;1.05;;;;;;;11.30;100.00;98533.06;1224576;75;2917668;-64
2023/09/05 03:40:07;;;;;;;1.15;1.05;;;;;;;11.19;100.00;98530.03;1224541;75;2924875;-66
2023/09/05 03:42:43;;;;;;;1.35;1.10;;;;;;;11.22;100.00;98542.81;1224978;75;2923591;-65
2023/09/05 03:45:16;;;;;;;0.90;0.90;;;;;;;11.31;100.00;98548.31;1224354;75;2928139;-65
2023/09/05 03:47:48;;;;;;;1.05;0.95;;;;;;;11.30;100.00;98546.75;1225650;75;2920576;-68
2023/09/05 03:50:21;;;;;;;0.70;0.70;;;;;;;11.32;100.00;98543.56;1225069;75;2916908;-64
2023/09/05 03:52:53;;;;;;;1.55;1.10;;;;;;;11.28;100.00;98544.50;1225417;75;2923744;-63
2023/09/05 03:55:26;;;;;;;1.10;1.00;;;;;;;11.13;100.00;98540.09;1224820;75;2924013;-67
2023/09/05 03:58:01;;;;;;;0.95;0.90;;;;;;;11.29;100.00;98548.75;1225663;75;2920844;-63
2023/09/05 04:00:35;;;;;;;1.20;0.90;;;;;;;11.22;100.00;98551.81;1225196;75;2916099;-65
2023/09/05 04:03:10;;;;;;;1.20;1.00;;;;;;;11.25;100.00;98559.09;1222139;75;2918548;-65
2023/09/05 04:05:43;;;;;;;0.90;0.90;;;;;;;11.31;100.00;98559.25;1224199;75;2923227;-65
2023/09/05 04:08:16;;;;;;;1.00;0.90;;;;;;;11.18;100.00;98564.88;1224448;75;2919467;-67
2023/09/05 04:10:48;;;;;;;0.95;0.85;;;;;;;11.33;100.00;98559.56;1224697;75;2919740;-65
2023/09/05 04:13:23;;;;;;;0.90;0.80;;;;;;;11.27;100.00;98553.91;1224310;75;2921747;-66
2023/09/05 04:15:56;;;;;;;0.95;0.90;;;;;;;11.34;100.00;98561.09;1223379;75;2926369;-64
2023/09/05 04:18:29;;;;;;;1.15;1.00;;;;;;;11.37;100.00;98557.41;1224404;75;2919267;-64
2023/09/05 04:21:01;;;;;;;0.65;0.65;;;;;;;11.40;100.00;98561.22;1224525;75;2934981;-64
2023/09/05 04:23:34;;;;;;;1.00;0.90;;;;;;;11.37;100.00;98565.63;1220717;75;3093998;-63
2023/09/05 04:26:07;;;;;;;0.90;0.90;;;;;;;11.38;100.00;98564.44;1224533;75;2921842;-64
2023/09/05 04:28:42;;;;;;;1.00;0.90;;;;;;;11.26;100.00;98574.34;1222321;75;3015454;-68
2023/09/05 04:31:18;;;;;;;1.30;1.00;;;;;;;11.38;100.00;98569.91;1224744;75;2924856;-65
2023/09/05 04:33:52;;;;;;;1.65;1.00;;;;;;;11.49;100.00;98564.72;1225470;75;2922042;-64
2023/09/05 04:36:25;;;;;;;0.70;0.70;;;;;;;11.42;100.00;98561.53;1224419;75;2914675;-69
2023/09/05 04:38:59;;;;;;;1.10;1.00;;;;;;;11.56;100.00;98565.63;1224091;75;2920126;-64
2023/09/05 04:41:32;;;;;;;1.20;1.00;;;;;;;11.52;100.00;98561.06;1224876;75;2919838;-65
2023/09/05 04:44:08;;;;;;;1.10;1.00;;;;;;;11.56;100.00;98569.13;1223914;75;2932385;-64
2023/09/05 04:46:45;;;;;;;0.75;0.75;;;;;;;11.67;100.00;98571.41;1224670;75;2929807;-69
2023/09/05 04:49:17;;;;;;;0.85;0.80;;;;;;;11.68;100.00;98572.91;1223791;75;2919857;-64
2023/09/05 04:51:50;;;;;;;1.10;1.00;;;;;;;11.68;100.00;98564.69;1223495;75;2924908;-64
2023/09/05 04:54:23;;;;;;;1.05;0.90;;;;;;;11.72;100.00;98579.75;1224395;75;2920122;-67
2023/09/05 04:56:56;;;;;;;1.40;0.95;;;;;;;11.67;100.00;98574.91;1224254;75;2920240;-65
2023/09/05 04:59:32;;;;;;;1.15;0.95;;;;;;;11.59;100.00;98568.19;1224479;75;2920196;-66
2023/09/05 05:02:04;;;;;;;1.20;0.90;;;;;;;11.76;100.00;98573.34;1223981;75;2920151;-65
2023/09/05 05:04:37;;;;;;;1.55;1.30;;;;;;;11.68;100.00;98578.41;1224520;75;2922186;-65
2023/09/05 05:07:09;;;;;;;1.50;1.25;;;;;;;11.88;100.00;98575.16;1224550;75;2919379;-66
2023/09/05 05:09:43;;;;;;;1.60;1.40;;;;;;;11.83;100.00;98581.25;1224509;75;2919987;-68
2023/09/05 05:12:15;;;;;;;3.35;2.65;;;;;;;11.93;100.00;98583.56;1224054;75;2922680;-65
2023/09/05 05:14:50;;;;;;;6.40;5.25;;;;;;;12.06;100.00;98588.84;1224330;75;2925823;-65
2023/09/05 05:17:23;;;;;;;7.40;5.85;;;;;;;12.11;100.00;98592.94;1224288;75;2924051;-67
2023/09/05 05:19:56;;;;;;;7.00;5.65;;;;;;;12.03;100.00;98594.50;1224085;75;2936039;-67
2023/09/05 05:22:29;;;;;;;4.75;4.05;;;;;;;12.01;100.00;98594.19;1224453;75;2902032;-66
2023/09/05 05:25:02;;;;;;;7.05;5.75;;;;;;;12.30;100.00;98588.13;1225087;75;2927819;-65
2023/09/05 05:27:35;;;;;;;6.65;4.65;;;;;;;12.33;100.00;98590.69;1224367;75;2923170;-66
2023/09/05 05:30:12;;;;;;;4.05;3.40;;;;;;;12.43;100.00;98594.16;1224392;75;2936418;-65
2023/09/05 05:32:46;;;;;;;3.15;2.70;;;;;;;12.52;100.00;98598.88;1225214;75;2926998;-64
2023/09/05 05:35:19;;;;;;;2.20;1.90;;;;;;;12.67;100.00;98596.19;1224661;75;2924648;-66
2023/09/05 05:37:51;;;;;;;2.05;1.55;;;;;;;12.79;100.00;98603.44;1223714;75;2918665;-65
2023/09/05 05:40:24;;;;;;;1.45;1.35;;;;;;;12.77;100.00;98606.66;1225206;75;2918780;-65
2023/09/05 05:42:56;;;;;;;2.10;1.50;;;;;;;12.79;100.00;98608.94;1223989;75;2930002;-66
2023/09/05 05:45:31;;;;;;;1.70;1.50;;;;;;;12.96;100.00;98614.78;1224279;75;2932473;-65
2023/09/05 05:48:07;;;;;;;2.30;1.70;;;;;;;13.15;100.00;98607.16;1224260;75;2917102;-65
2023/09/05 05:50:40;;;;;;;2.25;1.70;;;;;;;13.10;100.00;98624.31;1222395;75;3003646;-68
2023/09/05 05:53:13;;;;;;;1.65;1.30;;;;;;;13.40;100.00;98620.44;1223304;75;2919415;-63
2023/09/05 05:55:46;;;;;;;2.80;1.60;;;;;;;13.41;100.00;98626.69;1223294;75;2924927;-66
2023/09/05 05:58:19;;;;;;;1.95;1.35;;;;;;;13.72;100.00;98634.53;1223804;75;2924763;-66
2023/09/05 06:00:54;;;;;;;1.70;1.15;;;;;;;13.88;100.00;98633.31;1223388;75;2951562;-66
2023/09/05 06:03:27;;;;;;;1.55;1.30;;;;;;;14.04;100.00;98640.31;1222286;75;2929461;-64
2023/09/05 06:05:59;;;;;;;1.95;1.50;;;;;;;14.17;100.00;98637.28;1223741;75;2926757;-64
2023/09/05 06:08:32;;;;;;;1.30;1.20;;;;;;;14.42;100.00;98630.41;1223657;75;2922478;-65
2023/09/05 06:11:05;;;;;;;1.60;1.20;;;;;;;14.53;100.00;98624.28;1223978;75;2917185;-64
2023/09/05 06:13:38;;;;;;;1.20;1.00;;;;;;;14.77;100.00;98629.66;1222848;75;2921225;-62
2023/09/05 06:16:13;;;;;;;1.30;1.10;;;;;;;14.86;100.00;98624.81;1223517;75;2920378;-64
2023/09/05 06:18:45;;;;;;;1.95;1.55;;;;;;;15.02;100.00;98631.03;1222131;75;2926123;-63
2023/09/05 06:21:18;;;;;;;4.00;2.30;;;;;;;14.85;100.00;98625.28;1224080;75;2921521;-65
2023/09/05 06:23:50;;;;;;;3.80;2.80;;;;;;;15.00;100.00;98625.97;1222603;75;2917869;-66
2023/09/05 06:26:23;;;;;;;7.60;2.75;;;;;;;15.08;100.00;98631.84;1223102;75;2929333;-67
2023/09/05 06:28:56;;;;;;;3.65;2.80;;;;;;;15.10;100.00;98634.88;1223328;75;2929666;-65
2023/09/05 06:31:31;;;;;;;3.45;2.70;;;;;;;15.25;100.00;98634.78;1224494;75;2932455;-66
2023/09/05 06:34:04;;;;;;;4.15;3.10;;;;;;;15.40;100.00;98629.97;1223779;75;2929046;-67
2023/09/05 06:36:37;;;;;;;4.15;2.90;;;;;;;15.48;100.00;98630.31;1224330;75;2926390;-64
2023/09/05 06:39:10;;;;;;;4.05;2.60;;;;;;;15.76;100.00;98633.38;1224132;75;2918489;-66
2023/09/05 06:41:44;;;;;;;5.40;3.15;;;;;;;15.89;100.00;98636.50;1224339;75;2920537;-63
2023/09/05 06:44:18;;;;;;;4.00;2.65;;;;;;;16.09;100.00;98632.16;1224017;75;2928254;-65
2023/09/05 06:46:53;;;;;;;5.80;3.00;;;;;;;16.28;100.00;98632.56;1225058;75;2915801;-64
2023/09/05 06:49:25;;;;;;;5.65;3.65;;;;;;;16.39;100.00;98627.88;1223722;75;2919513;-65
2023/09/05 06:51:58;;;;;;;6.20;3.25;;;;;;;16.53;98.07;98628.97;1223031;75;2968317;-66
2023/09/05 06:54:30;;;;;;;6.25;3.55;;;;;;;16.64;93.96;98622.75;1224300;75;2931425;-66
2023/09/05 06:57:03;;;;;;;4.85;3.00;;;;;;;16.95;91.51;98635.78;1224112;75;2929486;-65
2023/09/05 06:59:36;;;;;;;5.15;2.65;;;;;;;16.94;88.73;98628.75;1224153;75;2923517;-65
2023/09/05 07:02:11;;;;;;;4.15;2.80;;;;;;;16.74;89.34;98635.16;1224142;75;2923961;-67
2023/09/05 07:04:43;;;;;;;5.45;3.00;;;;;;;17.04;89.17;98629.28;1224687;75;2923600;-66
2023/09/05 07:07:16;;;;;;;5.25;3.70;;;;;;;17.13;89.42;98625.56;1224125;75;2923120;-64
2023/09/05 07:09:49;;;;;;;5.45;3.65;;;;;;;17.23;86.29;98637.94;1223985;75;2924058;-66
2023/09/05 07:12:21;;;;;;;4.75;3.10;;;;;;;17.36;85.01;98634.69;1224623;75;2929521;-65
2023/09/05 07:14:55;;;;;;;4.90;2.60;;;;;;;17.56;82.69;98645.59;1224865;75;2923352;-65
2023/09/05 07:17:30;;;;;;;4.50;2.85;;;;;;;17.65;82.14;98639.81;1224098;75;2923037;-64
2023/09/05 07:20:02;;;;;;;5.45;3.30;;;;;;;17.74;80.65;98641.59;1224172;75;2924742;-65
2023/09/05 07:22:35;;;;;;;7.05;2.80;;;;;;;17.82;77.83;98641.88;1223788;75;2931037;-66
2023/09/05 07:25:09;;;;;;;5.00;2.85;;;;;;;17.92;76.78;98648.72;1224272;75;2926441;-68
2023/09/05 07:27:42;;;;;;;3.90;2.90;;;;;;;18.18;78.00;98653.25;1224011;75;2922511;-66
2023/09/05 07:30:16;;;;;;;4.80;2.65;;;;;;;18.19;75.64;98646.47;1224323;75;2917259;-64
2023/09/05 07:32:51;;;;;;;4.45;2.40;;;;;;;18.26;75.00;98645.97;1223745;75;2926348;-65
2023/09/05 07:35:24;;;;;;;4.10;2.50;;;;;;;18.45;74.62;98654.53;1222720;75;2926711;-67
2023/09/05 07:37:57;;;;;;;3.95;3.00;;;;;;;18.65;73.44;98648.69;1222776;75;2922654;-69
2023/09/05 07:40:29;;;;;;;4.85;3.05;;;;;;;18.60;73.57;98660.53;1223345;75;2925489;-66
2023/09/05 07:43:03;;;;;;;2.70;2.10;;;;;;;19.10;72.28;98651.38;1223122;75;2926942;-66
2023/09/05 07:45:36;;;;;;;3.15;1.95;;;;;;;19.36;71.83;98656.56;1221713;75;2886773;-68
2023/09/05 07:48:12;;;;;;;2.45;1.80;;;;;;;19.62;70.48;98649.13;1222118;75;2928024;-65
2023/09/05 07:50:46;;;;;;;3.20;2.30;;;;;;;19.37;73.03;98649.75;1223685;75;2920630;-65
2023/09/05 07:53:19;;;;;;;4.00;2.80;;;;;;;19.20;71.25;98646.28;1223176;75;2923336;-65
2023/09/05 07:55:51;;;;;;;3.55;2.50;;;;;;;19.90;70.12;98644.16;1223241;75;2947671;-65
2023/09/05 07:58:24;;;;;;;6.85;2.65;;;;;;;20.00;70.04;98641.84;1221450;75;2940402;-67
2023/09/05 08:00:57;;;;;;;3.25;2.05;;;;;;;20.36;66.38;98642.53;1223249;75;2927871;-68
2023/09/05 08:03:32;;;;;;;4.65;2.10;;;;;;;20.54;64.24;98648.72;1222990;75;2920508;-67
2023/09/05 08:06:06;;;;;;;2.55;1.80;;;;;;;20.84;63.60;98646.66;1223600;75;2922873;-66
2023/09/05 08:08:38;;;;;;;2.05;1.40;;;;;;;20.90;61.67;98648.63;1222856;75;2925035;-65
2023/09/05 08:11:11;;;;;;;2.65;1.80;;;;;;;21.26;62.21;98641.66;1223674;75;2921021;-67
2023/09/05 08:13:43;;;;;;;2.05;1.70;;;;;;;21.32;61.23;98638.03;1222903;75;2932032;-68
2023/09/05 08:16:16;;;;;;;1.60;1.30;;;;;;;21.25;60.44;98642.91;1222363;75;2939974;-68
2023/09/05 08:18:51;;;;;;;2.45;1.85;;;;;;;21.03;61.62;98637.63;1222512;75;2931283;-68
2023/09/05 08:21:26;;;;;;;3.15;2.10;;;;;;;20.76;60.81;98642.97;1223777;75;2930650;-69
2023/09/05 08:23:59;;;;;;;2.70;1.70;;;;;;;21.05;59.74;98652.53;1222823;75;2926613;-68
2023/09/05 08:26:33;;;;;;;5.00;2.10;;;;;;;21.06;61.24;98639.34;1222087;75;2919227;-67
2023/09/05 08:29:06;;;;;;;3.70;2.05;;;;;;;21.53;61.28;98635.47;1222310;75;2928248;-67
2023/09/05 08:31:39;;;;;;;2.45;1.80;;;;;;;21.94;60.15;98628.84;1222623;75;2921540;-68
2023/09/05 08:34:14;;;;;;;3.40;2.10;;;;;;;21.65;56.91;98636.88;1223901;75;2924676;-68
2023/09/05 08:36:48;;;;;;;2.70;1.90;;;;;;;21.86;57.85;98632.25;1222945;75;2950869;-66
2023/09/05 08:39:20;;;;;;;2.85;2.00;;;;;;;22.16;57.28;98634.06;1223460;75;2923704;-67
2023/09/05 08:41:55;;;;;;;2.95;1.80;;;;;;;22.08;57.70;98628.34;1224111;75;2923363;-69
2023/09/05 08:44:27;;;;;;;3.45;1.80;;;;;;;22.08;56.95;98625.56;1223900;75;2922912;-67
2023/09/05 08:47:02;;;;;;;2.30;1.75;;;;;;;22.69;54.55;98630.63;1223776;75;2917145;-68
2023/09/05 08:49:38;;;;;;;4.25;3.10;;;;;;;22.09;55.75;98627.06;1223920;75;2922183;-66
2023/09/05 08:52:14;;;;;;;4.35;3.45;;;;;;;22.04;55.19;98627.91;1223694;75;2916143;-69
2023/09/05 08:54:46;;;;;;;2.95;2.15;;;;;;;22.25;55.20;98622.53;1224645;75;2925477;-67
2023/09/05 08:57:20;;;;;;;3.05;2.15;;;;;;;22.53;53.21;98619.22;1222391;75;2919813;-64
2023/09/05 08:59:53;;;;;;;3.15;1.70;;;;;;;22.71;53.17;98619.69;1223086;75;2919486;-70
2023/09/05 09:02:25;;;;;;;3.75;1.50;;;;;;;22.81;53.57;98611.66;1223522;75;2922094;-69
2023/09/05 09:05:00;;;;;;;2.65;1.80;;;;;;;23.27;53.92;98615.06;1224724;75;2918572;-68
2023/09/05 09:07:35;;;;;;;3.10;1.70;;;;;;;23.51;52.39;98614.78;1223657;75;2918757;-67
2023/09/05 09:10:21;;;;;;;2.25;1.50;;;;;;;24.12;51.44;98605.53;1223920;75;2924339;-69
2023/09/05 09:12:56;;;;;;;2.25;1.50;;;;;;;24.07;49.49;98604.34;1223676;75;2920843;-67
2023/09/05 09:15:30;;;;;;;1.60;1.30;;;;;;;23.08;53.32;98607.56;1223265;75;2936194;-65
2023/09/05 09:18:02;;;;;;;1.80;1.60;;;;;;;24.28;50.60;98592.41;1221995;75;2930253;-65
2023/09/05 09:20:49;;;;;;;5.70;2.15;;;;;;;22.75;51.73;98592.97;1223480;75;2926524;-70
2023/09/05 09:23:29;;;;;;;2.65;1.85;;;;;;;24.12;50.35;98586.69;1224279;75;2918115;-67
2023/09/05 09:26:02;;;;;;;4.60;2.00;;;;;;;23.06;51.09;98584.25;1223519;75;2922308;-70
2023/09/05 09:28:37;;;;;;;2.50;1.60;;;;;;;22.93;52.02;98577.38;1223079;75;2926074;-68
2023/09/05 09:31:13;;;;;;;2.35;1.65;;;;;;;22.91;52.02;98579.94;1223196;75;2927595;-66
2023/09/05 09:33:46;;;;;;;3.35;1.70;;;;;;;23.40;52.02;98575.91;1223207;75;2921097;-68
2023/09/05 09:36:21;;;;;;;3.50;1.45;;;;;;;24.96;49.57;98561.31;1224097;75;2914350;-66
2023/09/05 09:38:57;;;;;;;2.70;1.60;;;;;;;24.95;48.16;98564.69;1219307;75;2922103;-67
2023/09/05 09:41:29;;;;;;;4.05;1.70;;;;;;;25.12;47.18;98553.72;1223812;75;2920710;-66
2023/09/05 09:44:03;;;;;;;2.15;1.60;;;;;;;25.91;47.17;98552.06;1223823;75;2927355;-70
2023/09/05 09:46:36;;;;;;;4.35;1.70;;;;;;;25.50;46.29;98556.66;1222478;75;2920901;-68
2023/09/05 09:49:13;;;;;;;2.35;1.60;;;;;;;24.57;48.29;98557.56;1224400;75;2921930;-70
2023/09/05 09:51:49;;;;;;;2.60;1.70;;;;;;;25.58;46.16;98550.31;1223857;75;2919853;-69
2023/09/05 09:54:24;;;;;;;1.85;1.50;;;;;;;25.76;45.90;98549.25;1223640;75;2926390;-69
2023/09/05 09:56:59;;;;;;;3.05;1.80;;;;;;;25.05;46.41;98546.03;1222329;75;2919829;-68
2023/09/05 09:59:35;;;;;;;2.40;1.70;;;;;;;24.54;47.23;98549.53;1224078;75;2926799;-70
2023/09/05 10:02:15;;;;;;;2.85;1.60;;;;;;;24.07;48.50;98544.88;1224499;75;2919526;-67
2023/09/05 10:04:49;;;;;;;3.35;2.05;;;;;;;25.41;47.37;98539.63;1221097;75;2926473;-69
2023/09/05 10:07:25;;;;;;;2.90;2.10;;;;;;;26.74;46.00;98535.69;1222794;75;2924061;-67
2023/09/05 10:09:58;;;;;;;1.35;1.10;;;;;;;27.56;43.79;98530.81;1223350;75;2934230;-69
2023/09/05 10:12:31;;;;;;;2.05;1.55;;;;;;;25.13;45.62;98532.06;1224229;75;2919672;-68
2023/09/05 10:15:08;;;;;;;2.90;1.40;;;;;;;26.76;42.90;98524.63;1223656;75;2911128;-69
2023/09/05 10:17:42;;;;;;;2.40;1.50;;;;;;;26.47;43.14;98524.13;1221168;75;2932305;-68
2023/09/05 10:20:19;;;;;;;2.30;1.90;;;;;;;26.72;44.52;98518.69;1224641;75;2920109;-66
2023/09/05 10:22:54;;;;;;;3.50;1.85;;;;;;;26.71;42.69;98510.81;1224139;75;2920798;-66
2023/09/05 10:25:28;;;;;;;2.45;1.90;;;;;;;26.87;41.84;98514.31;1223922;75;2922794;-64
2023/09/05 10:28:01;;;;;;;1.80;1.45;;;;;;;26.93;42.46;98517.66;1222982;75;2925472;-68
2023/09/05 10:30:41;;;;;;;1.80;1.30;;;;;;;26.29;42.88;98500.03;1223538;75;2919242;-67
2023/09/05 10:33:17;;;;;;;1.50;1.10;;;;;;;28.19;40.97;98493.94;1223568;75;2920907;-69
2023/09/05 10:35:50;;;;;;;1.85;1.55;;;;;;;26.56;42.49;98495.50;1223686;75;2925575;-67
2023/09/05 10:38:25;;;;;;;2.50;1.50;;;;;;;27.15;42.34;98494.28;1222939;75;2915688;-67
2023/09/05 10:40:59;;;;;;;1.15;1.00;;;;;;;28.51;41.23;98481.06;1223574;75;2926283;-66
2023/09/05 10:43:33;;;;;;;1.40;1.10;;;;;;;28.64;40.91;98491.22;1224147;75;2919176;-67
2023/09/05 10:46:06;;;;;;;2.85;1.20;;;;;;;29.06;38.38;98482.66;1222990;75;2924711;-68
2023/09/05 10:48:45;;;;;;;1.10;1.00;;;;;;;30.14;38.53;98489.47;1224553;75;2929726;-67
2023/09/05 10:51:18;;;;;;;3.00;1.40;;;;;;;29.70;37.92;98476.28;1223935;75;2939932;-70
2023/09/05 10:53:54;;;;;;;1.35;1.10;;;;;;;29.33;37.65;98473.44;1223656;75;2921411;-68
2023/09/05 10:56:43;;;;;;;1.60;1.20;;;;;;;29.65;37.95;98480.81;1222039;75;2920812;-68
2023/09/05 10:59:29;;;;;;;1.80;1.05;;;;;;;30.57;35.89;98479.25;1222180;75;2926885;-67
2023/09/05 11:02:08;;;;;;;2.40;1.45;;;;;;;28.18;39.35;98472.00;1222799;75;2918088;-67
2023/09/05 11:04:44;;;;;;;1.90;1.40;;;;;;;28.70;39.41;98474.09;1222025;75;2931329;-69
2023/09/05 11:07:17;;;;;;;1.60;1.10;;;;;;;29.20;39.12;98480.22;1223540;75;2920817;-66
2023/09/05 11:09:54;;;;;;;1.60;1.15;;;;;;;29.92;36.80;98477.22;1223051;75;2926006;-67
2023/09/05 11:12:27;;;;;;;2.30;1.30;;;;;;;29.60;35.96;98464.94;1223586;75;2929615;-66
2023/09/05 11:14:59;;;;;;;1.95;1.00;;;;;;;29.85;35.91;98470.38;1222155;75;2918983;-68
2023/09/05 11:17:32;;;;;;;1.50;0.95;;;;;;;29.62;36.92;98459.44;1222341;75;2925947;-67
2023/09/05 11:20:07;;;;;;;1.80;1.10;;;;;;;30.25;36.20;98471.94;1222323;75;2926905;-70
2023/09/05 11:22:40;;;;;;;1.50;1.20;;;;;;;29.91;36.97;98470.09;1221282;75;2920750;-67
2023/09/05 11:25:15;;;;;;;1.65;1.45;;;;;;;29.59;37.22;98460.63;1223352;75;2920421;-68
2023/09/05 11:27:58;;;;;;;1.30;1.10;;;;;;;30.58;36.02;98452.47;1223061;75;2926159;-67
2023/09/05 11:30:32;;;;;;;1.90;1.35;;;;;;;29.78;35.98;98457.16;1222752;75;2924480;-70
2023/09/05 11:33:09;;;;;;;3.60;1.30;;;;;;;30.93;35.70;98457.81;1223333;75;2930292;-67
2023/09/05 11:35:41;;;;;;;1.30;1.20;;;;;;;29.47;37.65;98451.22;1222841;75;2920814;-68
2023/09/05 11:38:15;;;;;;;5.85;2.40;;;;;;;30.65;35.71;98450.09;1222330;75;2917773;-68
2023/09/05 11:40:57;;;;;;;4.05;2.20;;;;;;;31.80;34.85;98447.50;1223571;75;2920183;-66
2023/09/05 11:43:33;;;;;;;2.05;1.15;;;;;;;31.93;34.59;98444.13;1223953;75;2927106;-66